Time;durP1;ratioP1;P1;durP2;ratioP2;P2;SDS_P1;SDS_P2;PMS_P1;PMS_P2;Temp;Humidity;BMP_temperature;BMP_pressure;BME280_temperature;BME280_humidity;BME280_pressure;Samples;Min_cycle;Max_cycle;Signal;HPM_P1;HPM_P2
2022/06/07 00:00:27;;;;;;;11.65;8.62;;;;;;;18.41;55.00;100853.97;465315;114;923258;-76
2022/06/07 00:01:30;;;;;;;10.56;9.44;;;;;;;18.39;54.74;100851.46;465277;114;923080;-76
2022/06/07 00:02:33;;;;;;;9.52;8.59;;;;;;;18.38;54.49;100843.43;465348;114;923159;-75
2022/06/07 00:03:36;;;;;;;16.31;9.48;;;;;;;18.38;54.33;100849.79;465205;114;922493;-76
2022/06/07 00:04:40;;;;;;;12.66;9.28;;;;;;;18.37;54.21;100847.28;465322;114;922655;-76
2022/06/07 00:05:43;;;;;;;11.14;8.73;;;;;;;18.38;54.09;100848.95;465240;114;922921;-76
2022/06/07 00:06:46;;;;;;;9.55;8.56;;;;;;;18.37;53.92;100848.11;465242;114;922856;-76
2022/06/07 00:07:50;;;;;;;9.62;8.66;;;;;;;18.37;53.87;100848.11;465329;114;923016;-76
2022/06/07 00:08:53;;;;;;;10.35;9.17;;;;;;;18.36;53.75;100849.20;465340;114;923249;-76
2022/06/07 00:09:56;;;;;;;10.49;9.41;;;;;;;18.33;53.73;100844.22;465278;114;922885;-76
2022/06/07 00:10:59;;;;;;;10.27;8.73;;;;;;;18.32;53.76;100848.06;465264;114;922835;-77
2022/06/07 00:12:03;;;;;;;10.39;8.89;;;;;;;18.30;53.73;100847.51;465245;114;930447;-77
2022/06/07 00:13:07;;;;;;;11.59;9.63;;;;;;;18.28;53.79;100839.48;465284;114;922467;-76
2022/06/07 00:14:10;;;;;;;10.30;9.21;;;;;;;18.27;53.84;100848.01;465343;114;922548;-76
2022/06/07 00:15:13;;;;;;;13.43;8.46;;;;;;;18.27;53.89;100848.84;465320;114;923002;-77
2022/06/07 00:16:17;;;;;;;9.86;8.86;;;;;;;18.27;53.90;100851.61;465320;114;922949;-76
2022/06/07 00:17:20;;;;;;;9.87;8.38;;;;;;;18.27;53.95;100848.01;465197;114;922478;-76
2022/06/07 00:18:23;;;;;;;14.42;9.40;;;;;;;18.26;53.95;100841.66;465353;114;923096;-76
2022/06/07 00:19:27;;;;;;;14.03;9.52;;;;;;;18.26;53.95;100838.89;465305;114;923022;-76
2022/06/07 00:20:30;;;;;;;12.96;8.36;;;;;;;18.25;54.03;100839.14;465300;113;922970;-76
2022/06/07 00:21:33;;;;;;;10.23;9.21;;;;;;;18.23;54.07;100836.66;465382;114;922530;-76
2022/06/07 00:22:36;;;;;;;10.34;8.63;;;;;;;18.22;54.10;100842.44;465346;114;922506;-76
2022/06/07 00:23:39;;;;;;;9.83;8.96;;;;;;;18.21;54.13;100838.84;456330;116;922514;-77
2022/06/07 00:24:43;;;;;;;9.63;8.63;;;;;;;18.19;54.14;100842.97;465143;114;923202;-77
2022/06/07 00:25:50;;;;;;;13.31;9.19;;;;;;;18.18;54.21;100844.89;465143;114;923117;-77
2022/06/07 00:26:53;;;;;;;10.87;8.92;;;;;;;18.15;54.20;100833.52;463716;112;930094;-77
2022/06/07 00:27:57;;;;;;;10.19;8.81;;;;;;;18.13;54.23;100844.83;454201;116;923084;-77
2022/06/07 00:29:00;;;;;;;10.55;9.40;;;;;;;18.12;54.33;100847.84;463395;112;930530;-77
2022/06/07 00:30:05;;;;;;;12.46;9.49;;;;;;;18.10;54.36;100841.73;465164;114;922559;-77
2022/06/07 00:31:08;;;;;;;10.94;9.33;;;;;;;18.08;54.42;100844.78;465110;114;923030;-77
2022/06/07 00:32:12;;;;;;;15.51;9.63;;;;;;;18.05;54.50;100847.20;465223;113;930526;-77
2022/06/07 00:33:16;;;;;;;12.97;9.74;;;;;;;18.02;54.63;100845.80;465195;114;923081;-75
2022/06/07 00:34:19;;;;;;;10.92;9.78;;;;;;;18.01;54.67;100841.38;465192;114;922556;-75
2022/06/07 00:35:22;;;;;;;11.16;9.94;;;;;;;18.00;54.70;100844.38;465276;113;923100;-76
2022/06/07 00:36:25;;;;;;;10.99;9.07;;;;;;;17.97;54.79;100847.66;465240;113;923000;-75
2022/06/07 00:37:28;;;;;;;10.29;9.16;;;;;;;17.96;54.94;100846.83;465198;113;922986;-75
2022/06/07 00:38:32;;;;;;;14.18;9.58;;;;;;;17.95;55.08;100845.16;465304;114;922487;-75
2022/06/07 00:39:35;;;;;;;12.38;9.82;;;;;;;17.95;55.42;100847.08;465226;113;922627;-75
2022/06/07 00:40:39;;;;;;;10.89;9.75;;;;;;;17.95;55.42;100847.08;465165;113;923054;-76
2022/06/07 00:41:42;;;;;;;10.83;9.71;;;;;;;17.95;55.29;100844.31;465182;114;923069;-76
2022/06/07 00:42:45;;;;;;;11.99;9.82;;;;;;;17.94;55.39;100843.48;465314;113;923004;-76
2022/06/07 00:44:21;;;;;;;10.44;9.24;;;;;;;17.93;55.46;100837.13;465295;114;923102;-76
2022/06/07 00:45:24;;;;;;;15.00;10.06;;;;;;;17.91;55.53;100844.84;465161;114;923067;-77
2022/06/07 00:46:27;;;;;;;11.87;9.64;;;;;;;17.88;55.66;100845.34;465361;113;922619;-76
2022/06/07 00:47:32;;;;;;;12.18;10.04;;;;;;;17.86;55.69;100839.23;465269;114;922481;-77
2022/06/07 00:48:36;;;;;;;11.29;10.19;;;;;;;17.83;55.78;100842.52;465128;113;922518;-76
2022/06/07 00:49:45;;;;;;;13.05;9.78;;;;;;;17.81;55.90;100844.69;465267;114;922846;-76
2022/06/07 00:50:58;;;;;;;12.17;9.32;;;;;;;17.82;56.01;100840.84;465183;114;922707;-76
2022/06/07 00:52:01;;;;;;;10.28;9.26;;;;;;;17.82;56.05;100837.25;461836;114;922627;-77
2022/06/07 00:53:05;;;;;;;10.56;9.06;;;;;;;17.82;56.08;100835.33;465298;114;922955;-76
2022/06/07 00:54:08;;;;;;;10.53;9.43;;;;;;;17.80;56.07;100837.53;465217;114;923089;-76
2022/06/07 00:55:11;;;;;;;12.80;9.46;;;;;;;17.78;56.06;100836.11;465273;114;930532;-76
2022/06/07 00:56:25;;;;;;;11.26;9.54;;;;;;;17.77;56.11;100832.51;465067;114;922896;-76
2022/06/07 00:57:29;;;;;;;11.14;9.39;;;;;;;17.75;56.13;100833.87;465295;114;922515;-76
2022/06/07 00:58:33;;;;;;;12.65;10.02;;;;;;;17.73;56.12;100828.60;465242;114;923120;-77
2022/06/07 00:59:36;;;;;;;10.98;9.84;;;;;;;17.72;56.15;100839.88;465202;114;922893;-76
2022/06/07 01:00:39;;;;;;;13.83;9.76;;;;;;;17.70;56.14;100836.53;455555;116;930701;-76
2022/06/07 01:01:43;;;;;;;10.15;9.18;;;;;;;17.68;56.26;100834.05;455876;114;930494;-76
2022/06/07 01:02:46;;;;;;;13.24;8.38;;;;;;;17.68;56.33;100838.73;465346;114;923128;-76
2022/06/07 01:03:50;;;;;;;10.51;9.45;;;;;;;17.67;56.31;100832.38;465238;114;922463;-76
2022/06/07 01:04:53;;;;;;;10.22;8.99;;;;;;;17.66;56.38;100833.47;465112;114;922526;-76
2022/06/07 01:10:43;;;;;;;12.59;9.83;;;;;;;17.66;56.43;100830.70;465362;114;922965;-76
2022/06/07 01:11:08;;;;;;;15.22;10.72;;;;;;;17.63;56.48;100838.66;465186;114;922550;-76
2022/06/07 01:12:11;;;;;;;13.19;10.21;;;;;;;17.62;56.58;100842.51;465356;114;923103;-76
2022/06/07 01:13:18;;;;;;;13.32;10.14;;;;;;;17.60;56.66;100845.51;465310;114;922922;-77
2022/06/07 01:14:21;;;;;;;12.76;11.28;;;;;;;17.60;56.65;100845.51;465907;111;923055;-76
2022/06/07 01:15:24;;;;;;;12.06;10.71;;;;;;;17.59;56.66;100840.24;465941;112;923122;-76
2022/06/07 01:16:27;;;;;;;14.73;11.38;;;;;;;17.60;56.68;100853.78;459511;114;922564;-76
2022/06/07 01:17:30;;;;;;;12.71;10.74;;;;;;;17.60;56.69;100841.91;456170;114;923210;-76
2022/06/07 01:18:34;;;;;;;12.10;10.81;;;;;;;17.59;56.70;100838.29;465411;112;923049;-76
2022/06/07 01:19:38;;;;;;;12.58;11.29;;;;;;;17.59;56.77;100849.32;465278;114;922585;-76
2022/06/07 01:20:42;;;;;;;14.38;11.01;;;;;;;17.59;56.71;100843.00;463251;113;922834;-76
2022/06/07 01:21:46;;;;;;;18.07;13.31;;;;;;;17.59;56.76;100840.24;462569;114;930358;-75
2022/06/07 01:22:49;;;;;;;14.03;11.49;;;;;;;17.58;56.75;100849.59;462478;114;922882;-75
2022/06/07 01:23:54;;;;;;;17.87;13.71;;;;;;;17.59;56.81;100843.00;462050;114;922529;-76
2022/06/07 01:25:01;;;;;;;17.97;15.27;;;;;;;17.59;56.80;100854.03;462269;114;922917;-76
2022/06/07 01:26:04;;;;;;;20.25;14.06;;;;;;;17.59;56.78;100851.27;462187;114;922510;-76
2022/06/07 01:27:08;;;;;;;19.13;14.64;;;;;;;17.58;56.71;100842.16;463731;112;922930;-76
2022/06/07 01:28:11;;;;;;;20.28;15.26;;;;;;;17.60;56.74;100858.45;462449;114;922516;-76
2022/06/07 01:29:14;;;;;;;20.74;14.91;;;;;;;17.59;56.71;100854.83;462576;112;922974;-77
2022/06/07 01:30:18;;;;;;;17.64;14.12;;;;;;;17.60;56.69;100855.70;462531;112;922603;-76
2022/06/07 01:31:21;;;;;;;19.32;14.66;;;;;;;17.60;56.63;100853.78;453645;117;923128;-76
2022/06/07 01:32:24;;;;;;;17.84;14.68;;;;;;;17.60;56.67;100852.95;454181;114;922709;-76
2022/06/07 01:33:27;;;;;;;18.98;13.99;;;;;;;17.59;56.60;100856.78;462491;112;922676;-76
2022/06/07 01:34:30;;;;;;;19.44;13.98;;;;;;;17.58;56.63;100855.11;462410;114;923125;-76
2022/06/07 01:35:33;;;;;;;21.86;14.98;;;;;;;17.58;56.71;100858.70;462513;114;922464;-76
2022/06/07 01:36:37;;;;;;;15.63;14.06;;;;;;;17.56;56.62;100851.77;462715;114;922506;-76
2022/06/07 01:37:40;;;;;;;18.41;14.18;;;;;;;17.55;56.65;100856.44;462528;114;922563;-77
2022/06/07 01:38:45;;;;;;;17.87;14.16;;;;;;;17.52;56.73;100856.96;462600;114;923095;-76
2022/06/07 01:42:32;;;;;;;17.34;14.69;;;;;;;17.48;56.97;100861.29;462386;114;922499;-76
2022/06/07 01:43:35;;;;;;;18.45;15.00;;;;;;;17.46;57.07;100864.32;462519;114;922974;-76
2022/06/07 01:44:44;;;;;;;17.09;14.86;;;;;;;17.45;57.10;100862.65;462550;114;930820;-76
2022/06/07 01:45:47;;;;;;;21.03;14.97;;;;;;;17.44;57.14;100857.37;462397;114;923226;-77
2022/06/07 01:46:51;;;;;;;18.58;15.13;;;;;;;17.42;57.11;100860.37;462663;114;923317;-76
2022/06/07 01:47:54;;;;;;;17.49;15.34;;;;;;;17.41;57.10;100857.90;462541;114;922420;-77
2022/06/07 01:48:57;;;;;;;17.36;15.46;;;;;;;17.38;57.18;100858.39;462783;112;923124;-76
2022/06/07 01:50:02;;;;;;;16.87;14.69;;;;;;;17.36;57.20;100855.91;462606;114;922488;-76
2022/06/07 01:51:07;;;;;;;22.52;15.45;;;;;;;17.35;57.26;100861.66;462416;114;922936;-76
2022/06/07 01:52:12;;;;;;;19.57;16.04;;;;;;;17.33;57.35;100861.07;462384;114;922615;-76
2022/06/07 01:53:17;;;;;;;20.43;16.08;;;;;;;17.32;57.42;100857.48;453769;117;922684;-76
2022/06/07 01:54:21;;;;;;;21.56;15.91;;;;;;;17.34;57.42;100862.75;454169;114;922648;-76
2022/06/07 01:55:24;;;;;;;18.95;15.91;;;;;;;17.34;57.52;100863.58;462462;114;922584;-75
2022/06/07 01:56:32;;;;;;;21.63;16.77;;;;;;;17.32;57.55;100862.16;462088;114;930518;-75
2022/06/07 01:57:35;;;;;;;18.18;15.19;;;;;;;17.31;57.68;100863.27;462608;114;923056;-76
2022/06/07 01:58:42;;;;;;;18.05;16.10;;;;;;;17.31;57.68;100860.51;462120;114;923075;-76
2022/06/07 01:59:47;;;;;;;19.79;16.16;;;;;;;17.30;57.73;100864.34;462367;114;923005;-76
2022/06/07 02:00:53;;;;;;;20.54;17.23;;;;;;;17.29;57.79;100862.67;462186;114;922641;-76
2022/06/07 02:01:57;;;;;;;27.09;16.81;;;;;;;17.27;57.80;100856.56;462414;114;922604;-76
2022/06/07 02:03:00;;;;;;;24.74;18.27;;;;;;;17.26;57.81;100861.23;462622;114;923017;-76
2022/06/07 02:04:04;;;;;;;22.84;18.52;;;;;;;17.25;57.81;100861.52;462607;114;923013;-75
2022/06/07 02:05:08;;;;;;;27.19;17.37;;;;;;;17.23;57.88;100863.67;462490;114;923051;-75
2022/06/07 02:06:14;;;;;;;23.62;18.42;;;;;;;17.23;57.92;100860.92;462428;114;923517;-75
2022/06/07 02:07:19;;;;;;;25.12;18.69;;;;;;;17.22;58.06;100862.00;453856;117;922665;-76
2022/06/07 02:08:26;;;;;;;25.46;19.26;;;;;;;17.22;58.14;100868.34;454250;114;922780;-75
2022/06/07 02:09:30;;;;;;;26.69;18.73;;;;;;;17.22;58.11;100867.51;462331;114;923026;-76
2022/06/07 02:10:33;;;;;;;23.87;18.16;;;;;;;17.22;58.10;100865.59;462423;114;922860;-76
2022/06/07 02:11:38;;;;;;;24.85;19.77;;;;;;;17.20;57.99;100867.75;461896;114;930657;-76
2022/06/07 02:12:43;;;;;;;24.62;18.46;;;;;;;17.20;57.99;100867.75;462358;114;923100;-75
2022/06/07 02:13:47;;;;;;;21.96;19.29;;;;;;;17.20;58.23;100881.53;462575;114;923097;-76
2022/06/07 02:14:50;;;;;;;24.06;18.84;;;;;;;17.20;58.21;100872.45;462506;114;923107;-76
2022/06/07 02:15:53;;;;;;;26.08;19.74;;;;;;;17.18;58.29;100878.21;462626;114;922828;-75
2022/06/07 02:16:56;;;;;;;25.11;19.13;;;;;;;17.19;58.32;100879.05;462576;114;922607;-75
2022/06/07 02:18:01;;;;;;;23.58;18.91;;;;;;;17.19;58.33;100874.37;461957;114;923032;-76
2022/06/07 02:19:13;;;;;;;21.99;19.34;;;;;;;17.18;58.23;100878.21;461503;114;922949;-76
2022/06/07 02:20:18;;;;;;;21.42;19.04;;;;;;;17.18;58.19;100883.72;462244;114;922932;-76
2022/06/07 02:21:22;;;;;;;24.50;18.63;;;;;;;17.17;58.21;100878.45;465013;114;922487;-75
2022/06/07 02:22:25;;;;;;;22.59;17.99;;;;;;;17.16;58.22;100876.78;455555;116;922658;-76
2022/06/07 02:23:30;;;;;;;28.82;20.16;;;;;;;17.15;58.20;100877.86;455950;114;923161;-76
2022/06/07 02:24:33;;;;;;;22.72;18.82;;;;;;;17.12;58.23;100881.97;465027;114;930464;-76
2022/06/07 02:25:42;;;;;;;26.99;18.78;;;;;;;17.13;58.27;100882.80;465224;114;922570;-76
2022/06/07 02:26:49;;;;;;;25.13;19.11;;;;;;;17.12;58.23;100878.38;465095;114;922470;-76
2022/06/07 02:27:54;;;;;;;27.44;19.32;;;;;;;17.10;58.24;100881.37;465130;114;922573;-76
2022/06/07 02:29:00;;;;;;;24.24;18.83;;;;;;;17.06;58.19;100878.30;465217;112;922878;-76
2022/06/07 02:30:04;;;;;;;28.54;18.60;;;;;;;17.06;58.25;100880.21;465150;114;922945;-77
2022/06/07 02:31:09;;;;;;;23.13;18.20;;;;;;;17.03;58.27;100884.31;465209;113;922570;-77
2022/06/07 02:32:22;;;;;;;21.16;18.56;;;;;;;17.04;58.28;100882.37;465113;114;922516;-77
2022/06/07 02:33:26;;;;;;;31.17;19.88;;;;;;;17.03;58.38;100883.48;465036;113;923043;-77
2022/06/07 02:34:30;;;;;;;23.04;18.55;;;;;;;17.04;58.39;100879.61;465039;114;922826;-77
2022/06/07 02:35:33;;;;;;;27.30;20.01;;;;;;;17.03;58.42;100884.31;465273;114;931133;-74
2022/06/07 02:36:36;;;;;;;25.31;20.13;;;;;;;17.04;58.41;100877.70;465323;114;922961;-75
2022/06/07 02:37:40;;;;;;;24.54;19.78;;;;;;;17.04;58.45;100877.70;455541;116;923161;-76
2022/06/07 02:38:45;;;;;;;25.66;20.52;;;;;;;17.03;58.45;100878.80;455823;114;923158;-75
2022/06/07 02:39:48;;;;;;;28.74;20.85;;;;;;;17.05;58.46;100878.53;464999;113;924213;-75
2022/06/07 02:40:53;;;;;;;27.51;20.48;;;;;;;17.05;58.41;100875.78;465057;114;930321;-76
2022/06/07 02:41:59;;;;;;;29.15;20.10;;;;;;;17.07;58.45;100881.89;465256;113;923015;-76
2022/06/07 02:43:03;;;;;;;25.01;20.27;;;;;;;17.09;58.53;100885.23;465077;114;922433;-75
2022/06/07 02:44:06;;;;;;;22.13;18.54;;;;;;;17.10;58.55;100876.70;465236;113;922482;-76
2022/06/07 02:45:11;;;;;;;22.66;18.94;;;;;;;17.14;58.56;100878.97;465447;114;923066;-76
2022/06/07 02:46:15;;;;;;;25.69;19.07;;;;;;;17.17;58.44;100883.97;465127;114;923024;-76
2022/06/07 02:47:19;;;;;;;22.71;18.16;;;;;;;17.17;58.37;100883.97;465373;114;922571;-76
2022/06/07 02:48:24;;;;;;;26.29;18.23;;;;;;;17.18;58.39;100885.64;464951;114;922503;-76
2022/06/07 02:49:28;;;;;;;24.39;18.51;;;;;;;17.17;58.35;100884.80;465243;114;922672;-76
2022/06/07 02:50:31;;;;;;;26.17;19.03;;;;;;;17.17;58.37;100884.80;465330;114;922560;-76
2022/06/07 02:51:34;;;;;;;22.94;17.75;;;;;;;17.17;58.37;100884.80;465330;114;922822;-76
2022/06/07 02:52:38;;;;;;;23.52;17.67;;;;;;;17.18;58.40;100891.98;464980;114;922583;-76
2022/06/07 02:53:46;;;;;;;24.78;17.56;;;;;;;17.21;58.43;100882.38;464646;114;922828;-76
2022/06/07 02:54:51;;;;;;;20.89;18.34;;;;;;;17.21;58.42;100885.13;465175;114;922550;-76
2022/06/07 02:55:54;;;;;;;22.23;18.21;;;;;;;17.22;58.47;100879.38;465237;114;930416;-76
2022/06/07 02:56:59;;;;;;;26.15;17.78;;;;;;;17.23;58.50;100881.05;466604;112;923165;-76
2022/06/07 02:58:02;;;;;;;22.67;18.59;;;;;;;17.24;58.51;100885.48;467084;112;923012;-76
2022/06/07 02:59:05;;;;;;;25.41;18.26;;;;;;;17.26;58.49;100882.45;465223;114;922903;-76
2022/06/07 03:00:13;;;;;;;28.93;17.31;;;;;;;17.27;58.52;100884.96;459790;113;923370;-75
2022/06/07 03:01:16;;;;;;;21.71;17.06;;;;;;;17.30;58.56;100886.39;460213;114;923034;-76
2022/06/07 03:02:20;;;;;;;24.64;19.34;;;;;;;17.31;58.54;100882.55;465165;114;922485;-77
2022/06/07 03:03:25;;;;;;;25.26;17.74;;;;;;;17.32;58.50;100886.95;465239;114;922646;-75
2022/06/07 03:04:28;;;;;;;27.64;19.41;;;;;;;17.33;58.52;100885.88;465099;114;922875;-76
2022/06/07 03:05:31;;;;;;;32.94;19.60;;;;;;;17.33;58.56;100881.20;465316;114;923001;-76
2022/06/07 03:06:36;;;;;;;25.21;18.83;;;;;;;17.34;58.65;100884.80;464899;114;923055;-76
2022/06/07 03:07:40;;;;;;;25.31;20.09;;;;;;;17.34;58.63;100885.63;465321;114;923246;-75
2022/06/07 03:08:43;;;;;;;21.94;18.32;;;;;;;17.35;58.67;100883.71;455606;116;923254;-77
2022/06/07 03:09:47;;;;;;;27.35;19.22;;;;;;;17.36;58.72;100882.63;456050;114;923289;-75
2022/06/07 03:10:51;;;;;;;23.19;18.56;;;;;;;17.37;58.73;100884.28;455566;116;930326;-76
2022/06/07 03:11:56;;;;;;;28.27;20.25;;;;;;;17.38;58.78;100877.68;456116;114;923133;-76
2022/06/07 03:12:58;;;;;;;23.03;18.69;;;;;;;17.40;58.84;100883.79;465152;114;923453;-77
2022/06/07 03:14:02;;;;;;;25.73;19.66;;;;;;;17.42;58.84;100892.66;465317;114;923136;-77
2022/06/07 03:15:08;;;;;;;25.52;18.92;;;;;;;17.44;58.88;100880.27;465201;114;923068;-77
2022/06/07 03:16:12;;;;;;;26.21;19.17;;;;;;;17.46;58.94;100886.38;465020;114;928774;-77
2022/06/07 03:17:15;;;;;;;20.41;17.52;;;;;;;17.49;58.85;100885.86;465206;114;923131;-77
2022/06/07 03:18:19;;;;;;;24.02;19.39;;;;;;;17.53;58.79;100883.45;465242;114;923014;-77
2022/06/07 03:19:22;;;;;;;20.17;18.15;;;;;;;17.53;58.75;100881.50;465139;114;922754;-77
2022/06/07 03:20:26;;;;;;;22.06;18.88;;;;;;;17.56;58.76;100885.69;465236;114;923217;-77
2022/06/07 03:21:29;;;;;;;27.09;18.97;;;;;;;17.57;58.75;100876.33;465162;113;922534;-76
2022/06/07 03:22:34;;;;;;;20.74;18.64;;;;;;;17.60;58.74;100881.36;465337;114;923008;-76
2022/06/07 03:23:37;;;;;;;21.43;18.48;;;;;;;17.62;58.70;100881.11;465101;114;923048;-76
2022/06/07 03:24:42;;;;;;;25.82;19.09;;;;;;;17.66;58.64;100885.02;465100;113;922957;-76
2022/06/07 03:25:47;;;;;;;27.63;19.01;;;;;;;17.68;58.53;100878.17;465186;113;922632;-76
2022/06/07 03:26:50;;;;;;;27.07;19.34;;;;;;;17.71;58.47;100874.06;465337;113;922737;-76
2022/06/07 03:27:53;;;;;;;25.20;18.16;;;;;;;17.72;58.42;100878.49;465288;114;922424;-76
2022/06/07 03:28:57;;;;;;;23.20;18.79;;;;;;;17.74;58.37;100882.68;465296;112;922543;-76
2022/06/07 03:30:00;;;;;;;25.09;18.02;;;;;;;17.77;58.32;100882.16;465173;113;922515;-76
2022/06/07 03:31:08;;;;;;;24.46;18.85;;;;;;;17.79;58.24;100876.39;465211;114;930465;-76
2022/06/07 03:32:13;;;;;;;28.43;17.92;;;;;;;17.81;58.18;100886.06;465051;114;922985;-76
2022/06/07 03:33:17;;;;;;;28.85;17.76;;;;;;;17.83;58.13;100881.14;465364;113;922550;-76
2022/06/07 03:34:20;;;;;;;22.16;18.44;;;;;;;17.86;58.23;100880.61;465299;114;923048;-76
2022/06/07 03:35:23;;;;;;;24.36;18.43;;;;;;;17.87;58.16;100876.77;465225;114;922672;-76
2022/06/07 03:36:29;;;;;;;20.23;17.58;;;;;;;17.89;58.12;100879.28;465300;113;922593;-77
2022/06/07 03:37:32;;;;;;;21.42;17.25;;;;;;;17.91;58.14;100880.70;465112;114;923091;-76
2022/06/07 03:38:36;;;;;;;27.61;18.87;;;;;;;17.93;58.13;100874.91;465342;114;922667;-76
2022/06/07 03:39:39;;;;;;;23.58;18.08;;;;;;;17.95;57.95;100878.27;465236;114;922836;-76
2022/06/07 03:40:43;;;;;;;26.29;17.93;;;;;;;17.97;57.90;100875.25;465155;113;930900;-77
2022/06/07 03:41:48;;;;;;;26.18;18.08;;;;;;;17.99;57.79;100884.09;464944;112;922752;-77
2022/06/07 03:42:53;;;;;;;20.85;17.98;;;;;;;18.01;57.75;100882.76;464798;114;922998;-75
2022/06/07 03:43:56;;;;;;;30.27;18.14;;;;;;;18.02;57.64;100878.08;465199;114;923252;-76
2022/06/07 03:45:00;;;;;;;25.73;17.86;;;;;;;18.04;57.59;100879.47;455385;116;923038;-75
2022/06/07 03:46:09;;;;;;;22.84;17.64;;;;;;;18.06;57.58;100881.98;455854;114;922646;-75
2022/06/07 03:47:13;;;;;;;21.74;18.28;;;;;;;18.08;57.60;100879.81;464953;114;923137;-75
2022/06/07 03:48:16;;;;;;;27.02;18.69;;;;;;;18.09;57.61;100882.29;465207;114;922538;-75
2022/06/07 03:49:21;;;;;;;22.66;18.11;;;;;;;18.12;57.71;100883.72;465030;114;923067;-75
2022/06/07 03:50:26;;;;;;;25.19;17.67;;;;;;;18.14;57.72;100889.83;465011;114;923096;-75
2022/06/07 03:51:31;;;;;;;25.14;17.76;;;;;;;18.16;57.68;100885.70;465154;114;923061;-75
2022/06/07 03:52:35;;;;;;;25.77;17.82;;;;;;;18.20;57.63;100891.53;455254;116;923144;-76
2022/06/07 03:53:39;;;;;;;26.31;18.36;;;;;;;18.21;57.56;100877.48;455907;114;923141;-75
2022/06/07 03:54:45;;;;;;;22.51;17.39;;;;;;;18.24;57.54;100884.42;465004;114;922781;-76
2022/06/07 03:55:51;;;;;;;24.14;17.44;;;;;;;18.26;57.47;100891.34;456918;115;922574;-76
2022/06/07 03:56:55;;;;;;;21.80;17.69;;;;;;;18.28;57.36;100888.33;460423;113;930523;-76
2022/06/07 03:57:59;;;;;;;24.39;17.89;;;;;;;18.31;57.34;100882.27;469148;113;922542;-76
2022/06/07 03:59:02;;;;;;;20.16;17.96;;;;;;;18.33;57.27;100874.58;469309;113;925279;-76
2022/06/07 04:00:06;;;;;;;20.09;17.67;;;;;;;18.37;57.24;100872.96;469154;112;923135;-76
2022/06/07 04:01:15;;;;;;;21.18;17.97;;;;;;;18.39;57.17;100884.59;468889;113;923214;-75
2022/06/07 04:02:19;;;;;;;23.46;17.99;;;;;;;18.42;57.10;100881.30;469066;113;922637;-75
2022/06/07 04:03:22;;;;;;;24.93;17.14;;;;;;;18.46;57.03;100884.39;469212;113;922581;-76
2022/06/07 04:04:26;;;;;;;23.79;17.24;;;;;;;18.48;56.95;100871.14;469200;113;922568;-77
2022/06/07 04:05:29;;;;;;;25.81;17.99;;;;;;;18.50;56.95;100872.56;467976;113;922922;-75
2022/06/07 04:06:36;;;;;;;19.90;17.11;;;;;;;18.53;56.89;100876.72;468044;113;923087;-75
2022/06/07 04:09:04;;;;;;;21.03;16.76;;;;;;;18.58;56.81;100877.64;469015;113;922980;-75
2022/06/07 04:10:09;;;;;;;26.19;16.72;;;;;;;18.60;56.79;100882.91;469010;113;922587;-75
2022/06/07 04:11:25;;;;;;;23.77;18.08;;;;;;;18.62;56.80;100881.56;468595;112;922789;-75
2022/06/07 04:12:29;;;;;;;26.51;17.53;;;;;;;18.64;56.82;100890.41;464863;114;923464;-76
2022/06/07 04:13:32;;;;;;;19.32;16.89;;;;;;;18.66;56.81;100884.63;465269;114;922759;-76
2022/06/07 04:14:39;;;;;;;17.88;16.03;;;;;;;18.68;56.76;100891.58;464967;114;922956;-76
2022/06/07 04:15:42;;;;;;;20.66;16.99;;;;;;;18.70;56.79;100891.30;465120;114;922558;-76
2022/06/07 04:16:45;;;;;;;25.99;17.79;;;;;;;18.73;56.83;100888.03;465217;114;922676;-76
2022/06/07 04:17:53;;;;;;;22.24;17.14;;;;;;;18.76;56.96;100890.25;464636;114;922519;-76
2022/06/07 04:18:57;;;;;;;23.14;17.71;;;;;;;18.80;56.97;100893.34;464768;114;923133;-76
2022/06/07 04:20:01;;;;;;;18.71;16.64;;;;;;;18.84;56.86;100900.01;465222;114;922909;-76
2022/06/07 04:21:06;;;;;;;20.62;16.68;;;;;;;18.86;56.85;100898.63;465194;114;923330;-76
2022/06/07 04:22:09;;;;;;;23.20;16.56;;;;;;;18.88;56.85;100888.16;465124;114;922448;-76
2022/06/07 04:23:17;;;;;;;21.45;15.84;;;;;;;18.91;56.84;100892.34;464745;114;923181;-77
2022/06/07 04:24:20;;;;;;;18.74;16.16;;;;;;;18.94;56.82;100891.81;464902;114;922803;-76
2022/06/07 04:25:23;;;;;;;19.63;16.07;;;;;;;18.97;56.78;100891.27;465244;114;922525;-76
2022/06/07 04:26:28;;;;;;;17.52;15.53;;;;;;;18.99;56.85;100900.98;455454;114;923057;-75
2022/06/07 04:27:33;;;;;;;21.56;15.23;;;;;;;19.02;56.80;100894.91;456176;114;923039;-76
2022/06/07 04:28:36;;;;;;;18.12;15.29;;;;;;;19.06;56.75;100895.24;465195;114;922529;-76
2022/06/07 04:29:40;;;;;;;17.43;15.22;;;;;;;19.10;56.66;100901.90;465142;112;930579;-76
2022/06/07 04:30:48;;;;;;;21.08;15.10;;;;;;;19.12;56.61;100897.79;457772;115;922595;-76
2022/06/07 04:31:52;;;;;;;18.00;15.54;;;;;;;19.15;56.60;100902.78;458445;114;923396;-76
2022/06/07 04:32:56;;;;;;;20.20;15.84;;;;;;;19.18;56.54;100895.91;465315;113;923080;-76
2022/06/07 04:34:00;;;;;;;20.36;14.94;;;;;;;19.22;56.44;100902.56;465180;114;923076;-76
2022/06/07 04:35:03;;;;;;;18.61;13.98;;;;;;;19.25;56.30;100901.19;465266;114;922467;-76
2022/06/07 04:36:12;;;;;;;18.74;14.14;;;;;;;19.28;56.16;100900.67;465249;113;922552;-75
2022/06/07 04:37:17;;;;;;;22.68;15.07;;;;;;;19.31;56.04;100909.27;464922;113;923033;-76
2022/06/07 04:38:20;;;;;;;17.32;14.69;;;;;;;19.34;55.93;100903.22;465138;114;922992;-77
2022/06/07 04:39:24;;;;;;;16.17;14.39;;;;;;;19.38;55.88;100897.98;465200;114;923000;-76
2022/06/07 04:40:31;;;;;;;17.52;14.06;;;;;;;19.40;55.85;100899.39;464009;114;924558;-76
2022/06/07 04:41:35;;;;;;;15.88;14.05;;;;;;;19.43;55.86;100903.55;465248;114;922866;-75
2022/06/07 04:42:41;;;;;;;18.25;14.30;;;;;;;19.46;55.78;100903.87;465044;114;930302;-76
2022/06/07 04:43:47;;;;;;;15.97;13.77;;;;;;;19.47;55.69;100900.01;464755;114;922972;-76
2022/06/07 04:44:52;;;;;;;19.95;14.33;;;;;;;19.50;55.63;100909.72;455446;116;923599;-77
2022/06/07 04:46:05;;;;;;;15.94;14.02;;;;;;;19.53;55.61;100900.88;456108;114;922713;-76
2022/06/07 04:47:09;;;;;;;16.34;13.48;;;;;;;19.55;55.59;100905.06;465143;114;922413;-76
2022/06/07 04:48:12;;;;;;;17.11;12.68;;;;;;;19.57;55.57;100900.08;465312;114;922899;-76
2022/06/07 04:49:29;;;;;;;16.28;13.03;;;;;;;19.60;55.59;100907.02;464232;114;923204;-76
2022/06/07 04:50:32;;;;;;;13.54;12.18;;;;;;;19.63;55.46;100906.47;455694;116;923062;-76
2022/06/07 04:51:37;;;;;;;12.61;11.32;;;;;;;19.64;55.39;100902.61;456121;114;923172;-76
2022/06/07 04:52:44;;;;;;;11.27;9.41;;;;;;;19.68;55.16;100914.00;464201;114;922827;-76
2022/06/07 04:53:56;;;;;;;12.25;9.53;;;;;;;19.80;54.71;100906.30;488029;107;922567;-76
2022/06/07 04:54:59;;;;;;;11.38;8.68;;;;;;;19.72;54.29;100915.95;468617;111;923026;-75
2022/06/07 04:56:11;;;;;;;13.65;9.24;;;;;;;19.73;54.05;100912.09;465721;113;928050;-75
2022/06/07 04:57:15;;;;;;;12.14;9.43;;;;;;;19.74;53.92;100916.50;464941;114;922589;-75
2022/06/07 04:58:19;;;;;;;10.31;9.14;;;;;;;19.76;53.68;100910.71;465076;114;922935;-76
2022/06/07 04:59:23;;;;;;;9.78;8.72;;;;;;;19.77;53.64;100917.92;465069;114;922532;-75